createdAt,value
2023-01-08T00:01:11.143Z,20.55
2023-01-08T00:03:39.098Z,18.05
2023-01-08T00:06:10.883Z,25.70
2023-01-08T00:08:38.439Z,23.77
2023-01-08T00:11:06.126Z,15.93
2023-01-08T00:13:33.952Z,24.30
2023-01-08T00:16:15.489Z,28.77
2023-01-08T00:18:44.194Z,24.10
2023-01-08T00:21:12.117Z,19.02
2023-01-08T00:23:40.191Z,20.85
2023-01-08T00:26:09.639Z,23.90
2023-01-08T00:28:38.218Z,16.17
2023-01-08T00:31:10.999Z,25.48
2023-01-08T00:33:40.129Z,25.30
2023-01-08T00:36:09.436Z,18.77
2023-01-08T00:38:37.519Z,26.05
2023-01-08T00:41:05.417Z,27.08
2023-01-08T00:43:32.984Z,27.30
2023-01-08T00:46:00.528Z,20.50
2023-01-08T00:48:28.335Z,22.35
2023-01-08T00:50:55.866Z,26.35
2023-01-08T00:53:23.889Z,18.98
2023-01-08T00:55:51.313Z,23.98
2023-01-08T00:58:18.804Z,21.35
2023-01-08T01:00:46.359Z,27.48
2023-01-08T01:03:13.822Z,19.80
2023-01-08T01:05:41.331Z,18.58
2023-01-08T01:08:08.872Z,23.98
2023-01-08T01:10:38.410Z,25.60
2023-01-08T01:13:06.539Z,30.35
2023-01-08T01:15:34.048Z,24.75
2023-01-08T01:18:01.571Z,23.33
2023-01-08T01:20:28.989Z,22.73
2023-01-08T01:22:56.490Z,29.42
2023-01-08T01:25:23.997Z,28.25
2023-01-08T01:27:51.493Z,24.17
2023-01-08T01:30:19.038Z,18.83
2023-01-08T01:32:46.568Z,24.92
2023-01-08T01:35:14.054Z,25.45
2023-01-08T01:37:41.574Z,23.15
2023-01-08T01:40:09.632Z,31.13
2023-01-08T01:42:39.997Z,20.80
2023-01-08T01:45:24.100Z,35.13
2023-01-08T01:48:15.753Z,21.30
2023-01-08T01:50:48.831Z,25.75
2023-01-08T01:53:23.379Z,27.30
2023-01-08T01:55:51.514Z,22.00
2023-01-08T01:58:22.770Z,26.35
2023-01-08T02:00:52.454Z,27.00
2023-01-08T02:03:30.074Z,32.17
2023-01-08T02:06:14.001Z,26.80
2023-01-08T02:08:44.554Z,30.63
2023-01-08T02:11:22.457Z,23.65
2023-01-08T02:14:20.147Z,30.23
2023-01-08T02:17:01.968Z,20.30
2023-01-08T02:19:43.115Z,20.67
2023-01-08T02:22:41.408Z,24.83
2023-01-08T02:25:46.291Z,14.18
2023-01-08T02:28:15.619Z,14.32
2023-01-08T02:30:44.534Z,18.98
2023-01-08T02:33:12.747Z,18.25
2023-01-08T02:35:52.067Z,13.35
2023-01-08T02:38:19.594Z,19.58
2023-01-08T02:41:09.254Z,19.02
2023-01-08T02:43:45.656Z,11.68
2023-01-08T02:46:17.766Z,16.77
2023-01-08T02:49:02.693Z,12.05
2023-01-08T02:51:53.563Z,15.18
2023-01-08T02:54:25.115Z,14.77
2023-01-08T02:57:04.268Z,18.30
2023-01-08T02:59:34.093Z,11.18
2023-01-08T03:02:03.896Z,19.67
2023-01-08T03:04:38.131Z,14.18
2023-01-08T03:07:05.982Z,16.52
2023-01-08T03:09:33.543Z,15.63
2023-01-08T03:12:09.092Z,11.80
2023-01-08T03:15:00.107Z,14.23
2023-01-08T03:17:32.752Z,16.00
2023-01-08T03:20:05.049Z,15.77
2023-01-08T03:22:35.615Z,12.23
2023-01-08T03:25:05.428Z,9.15
2023-01-08T03:27:37.667Z,10.63
2023-01-08T03:30:07.736Z,12.40
2023-01-08T03:32:36.812Z,11.10
2023-01-08T03:35:07.305Z,11.38
2023-01-08T03:37:38.765Z,10.50
2023-01-08T03:40:10.373Z,10.55
2023-01-08T03:42:38.367Z,9.43
2023-01-08T03:45:07.179Z,12.15
2023-01-08T03:47:37.608Z,11.48
2023-01-08T03:50:10.104Z,10.20
2023-01-08T03:52:37.639Z,6.63
2023-01-08T03:55:05.433Z,8.45
2023-01-08T03:57:32.891Z,7.35
2023-01-08T04:00:00.349Z,11.43
2023-01-08T04:02:27.923Z,8.27
2023-01-08T04:04:55.502Z,8.60
2023-01-08T04:07:23.032Z,11.15
2023-01-08T04:09:50.462Z,9.98
2023-01-08T04:12:18.047Z,10.90
2023-01-08T04:14:45.510Z,9.07
2023-01-08T04:17:13.711Z,9.45
2023-01-08T04:19:41.238Z,12.00
2023-01-08T04:22:11.188Z,12.43
2023-01-08T04:24:38.855Z,12.10
2023-01-08T04:27:06.379Z,11.73
2023-01-08T04:29:33.854Z,13.93
2023-01-08T04:32:01.517Z,15.13
2023-01-08T04:34:29.207Z,11.82
2023-01-08T04:36:56.787Z,14.40
2023-01-08T04:39:24.276Z,16.25
2023-01-08T04:41:51.788Z,10.60
2023-01-08T04:44:19.242Z,14.35
2023-01-08T04:46:46.730Z,17.30
2023-01-08T04:49:14.372Z,16.85
2023-01-08T04:51:41.918Z,13.70
2023-01-08T04:54:09.348Z,14.13
2023-01-08T04:56:37.041Z,17.55
2023-01-08T04:59:04.734Z,16.52
2023-01-08T05:01:32.378Z,12.23
2023-01-08T05:04:02.870Z,16.45
2023-01-08T05:06:32.119Z,17.63
2023-01-08T05:08:59.870Z,19.42
2023-01-08T05:11:27.414Z,13.18
2023-01-08T05:13:54.989Z,13.13
2023-01-08T05:16:23.222Z,14.40
2023-01-08T05:18:50.758Z,14.80
2023-01-08T05:21:18.512Z,11.73
2023-01-08T05:23:47.897Z,17.05
2023-01-08T05:26:16.897Z,9.25
2023-01-08T05:28:44.769Z,10.13
2023-01-08T05:31:12.407Z,14.27
2023-01-08T05:33:40.216Z,14.90
2023-01-08T05:36:09.675Z,15.20
2023-01-08T05:38:37.850Z,10.13
2023-01-08T05:41:06.165Z,12.80
2023-01-08T05:43:33.690Z,11.40
2023-01-08T05:46:02.255Z,12.15
2023-01-08T05:48:32.057Z,18.67
2023-01-08T05:50:59.599Z,10.90
2023-01-08T05:53:27.259Z,16.90
2023-01-08T05:56:15.106Z,15.85
2023-01-08T05:58:42.601Z,12.75
2023-01-08T06:01:12.658Z,18.90
2023-01-08T06:03:40.227Z,14.13
2023-01-08T06:06:08.795Z,13.98
2023-01-08T06:08:36.295Z,18.75
2023-01-08T06:11:07.122Z,17.98
2023-01-08T06:13:37.891Z,16.58
2023-01-08T06:16:05.878Z,17.95
2023-01-08T06:18:33.395Z,19.55
2023-01-08T06:21:02.366Z,17.08
2023-01-08T06:23:29.981Z,17.40
2023-01-08T06:25:59.392Z,21.75
2023-01-08T06:28:27.231Z,23.88
2023-01-08T06:30:57.309Z,18.42
2023-01-08T06:33:24.898Z,17.45
2023-01-08T06:35:52.453Z,24.50
2023-01-08T06:38:20.068Z,17.77
2023-01-08T06:40:48.145Z,19.42
2023-01-08T06:43:15.970Z,19.90
2023-01-08T06:45:43.495Z,20.40
2023-01-08T06:48:11.001Z,25.35
2023-01-08T06:50:38.540Z,28.65
2023-01-08T06:53:06.023Z,21.77
2023-01-08T06:55:33.427Z,26.55
2023-01-08T07:00:56.433Z,22.05
2023-01-08T07:03:24.049Z,24.48
2023-01-08T07:05:51.572Z,30.73
2023-01-08T07:08:19.343Z,26.25
2023-01-08T07:10:46.889Z,27.48
2023-01-08T07:13:14.662Z,28.52
2023-01-08T07:15:42.958Z,29.30
2023-01-08T07:18:12.114Z,28.58
2023-01-08T07:20:39.689Z,23.27
2023-01-08T07:23:11.401Z,32.00
2023-01-08T07:25:39.005Z,26.83
2023-01-08T07:28:09.401Z,21.75
2023-01-08T07:30:36.893Z,24.85
2023-01-08T07:33:04.458Z,30.95
2023-01-08T07:35:31.985Z,28.73
2023-01-08T07:37:59.545Z,30.20
2023-01-08T07:40:27.018Z,27.52
2023-01-08T07:43:02.351Z,29.17
2023-01-08T07:45:31.577Z,23.73
2023-01-08T07:47:59.386Z,31.80
2023-01-08T07:50:27.389Z,25.70
2023-01-08T07:53:00.970Z,26.00
2023-01-08T07:55:30.028Z,31.10
2023-01-08T07:57:57.438Z,30.05
2023-01-08T08:00:25.407Z,28.27
2023-01-08T08:02:53.051Z,27.27
2023-01-08T08:05:20.590Z,29.65
2023-01-08T08:07:48.061Z,34.33
2023-01-08T08:10:15.753Z,29.33
2023-01-08T08:12:45.471Z,33.53
2023-01-08T08:15:13.054Z,26.92
2023-01-08T08:17:40.511Z,32.83
2023-01-08T08:20:08.496Z,24.10
2023-01-08T08:22:35.935Z,31.25
2023-01-08T08:25:03.624Z,33.90
2023-01-08T08:27:31.033Z,36.25
2023-01-08T08:29:58.510Z,29.13
2023-01-08T08:32:25.943Z,29.83
2023-01-08T08:34:53.402Z,43.40
2023-01-08T08:37:20.909Z,39.83
2023-01-08T08:39:48.403Z,35.38
2023-01-08T08:42:15.912Z,31.15
2023-01-08T08:44:43.472Z,27.38
2023-01-08T08:47:11.101Z,31.20
2023-01-08T08:49:38.623Z,28.83
2023-01-08T08:52:06.160Z,34.67
2023-01-08T08:54:33.720Z,33.53
2023-01-08T08:57:01.280Z,29.88
2023-01-08T08:59:28.731Z,30.15
2023-01-08T09:01:56.390Z,27.88
2023-01-08T09:04:23.906Z,32.08
2023-01-08T09:06:52.322Z,29.35
2023-01-08T09:09:19.966Z,33.38
2023-01-08T09:11:47.455Z,31.10
2023-01-08T09:14:14.964Z,36.30
2023-01-08T09:16:42.473Z,30.30
2023-01-08T09:19:10.368Z,35.28
2023-01-08T09:21:38.233Z,28.90
2023-01-08T09:24:06.367Z,31.83
2023-01-08T09:26:33.865Z,35.30
2023-01-08T09:29:01.492Z,27.13
2023-01-08T09:31:29.127Z,32.20
2023-01-08T09:33:56.673Z,37.05
2023-01-08T09:36:24.176Z,33.70
2023-01-08T09:38:51.680Z,38.22
2023-01-08T09:41:25.881Z,23.08
2023-01-08T09:43:55.811Z,26.02
2023-01-08T09:46:26.454Z,27.73
2023-01-08T09:48:59.717Z,36.25
2023-01-08T09:51:38.131Z,30.60
2023-01-08T09:54:07.602Z,35.40
2023-01-08T09:56:36.202Z,20.85
2023-01-08T09:59:04.961Z,28.25
2023-01-08T10:01:37.928Z,27.80
2023-01-08T10:04:20.576Z,23.63
2023-01-08T10:07:12.143Z,40.45
2023-01-08T10:09:40.956Z,34.58
2023-01-08T10:12:13.113Z,31.75
2023-01-08T10:14:48.379Z,34.30
2023-01-08T10:17:37.961Z,41.13
2023-01-08T10:20:17.554Z,29.85
2023-01-08T10:22:45.728Z,26.50
2023-01-08T10:25:16.828Z,22.77
2023-01-08T10:27:54.433Z,35.20
2023-01-08T10:30:29.345Z,29.15
2023-01-08T10:33:02.418Z,29.15
2023-01-08T10:35:35.493Z,30.33
2023-01-08T10:38:04.184Z,40.65
2023-01-08T10:40:46.164Z,23.55
2023-01-08T10:43:24.201Z,28.70
2023-01-08T10:46:03.191Z,39.35
2023-01-08T10:48:45.167Z,33.95
2023-01-08T10:51:23.834Z,39.03
2023-01-08T10:53:56.519Z,31.27
2023-01-08T10:56:26.884Z,36.17
2023-01-08T10:58:54.926Z,30.63
2023-01-08T11:01:30.621Z,37.13
2023-01-08T11:04:01.390Z,39.08
2023-01-08T11:06:46.843Z,32.70
2023-01-08T11:09:23.972Z,33.72
2023-01-08T11:11:51.860Z,27.70
2023-01-08T11:14:30.684Z,34.67
2023-01-08T11:16:59.297Z,34.25
2023-01-08T11:19:31.585Z,35.67
2023-01-08T11:22:17.319Z,35.78
2023-01-08T11:24:45.657Z,32.13
2023-01-08T11:27:13.078Z,29.55
2023-01-08T11:30:02.337Z,33.33
2023-01-08T11:32:48.347Z,33.33
2023-01-08T11:35:26.163Z,34.72
2023-01-08T11:37:58.314Z,31.63
2023-01-08T11:40:32.232Z,30.27
2023-01-08T11:43:20.152Z,24.35
2023-01-08T11:46:13.784Z,27.25
2023-01-08T11:49:22.630Z,35.83
2023-01-08T11:52:23.916Z,32.70
2023-01-08T11:55:03.840Z,37.80
2023-01-08T11:57:57.190Z,30.88
2023-01-08T12:00:50.960Z,35.53
2023-01-08T12:03:40.059Z,33.78
2023-01-08T12:06:28.360Z,35.25
2023-01-08T12:09:17.587Z,36.47
2023-01-08T12:11:53.402Z,38.63
2023-01-08T12:14:54.136Z,34.53
2023-01-08T12:17:52.467Z,40.47
2023-01-08T12:20:35.054Z,28.13
2023-01-08T12:23:35.045Z,30.27
2023-01-08T12:26:11.527Z,30.55
2023-01-08T12:29:09.993Z,33.47
2023-01-08T12:32:17.234Z,33.45
2023-01-08T12:35:06.253Z,35.17
2023-01-08T12:37:44.284Z,32.10
2023-01-08T12:40:29.493Z,28.08
2023-01-08T12:43:03.082Z,33.33
2023-01-08T12:45:43.329Z,35.17
2023-01-08T12:48:29.314Z,36.45
2023-01-08T12:51:01.648Z,31.10
2023-01-08T12:53:41.739Z,30.75
2023-01-08T12:56:25.559Z,27.30
2023-01-08T12:59:17.700Z,26.23
2023-01-08T13:01:55.570Z,25.58
2023-01-08T13:04:23.508Z,28.70
2023-01-08T13:07:21.445Z,17.02
2023-01-08T13:10:05.983Z,15.23
2023-01-08T13:12:40.274Z,15.50
2023-01-08T13:15:09.310Z,7.22
2023-01-08T13:17:38.265Z,11.35
2023-01-08T13:20:08.128Z,13.13
2023-01-08T13:22:37.449Z,10.52
2023-01-08T13:25:35.081Z,17.85
2023-01-08T13:28:29.748Z,9.40
2023-01-08T13:31:09.840Z,11.80
2023-01-08T13:33:39.742Z,13.32
2023-01-08T13:36:13.563Z,8.93
2023-01-08T13:38:41.786Z,11.90
2023-01-08T13:41:33.665Z,14.23
2023-01-08T13:44:06.854Z,15.40
2023-01-08T13:46:37.845Z,14.23
2023-01-08T13:49:09.793Z,13.75
2023-01-08T13:51:45.746Z,9.23
2023-01-08T13:56:42.416Z,16.08
2023-01-08T13:59:33.918Z,16.70
2023-01-08T14:02:01.836Z,8.90
2023-01-08T14:04:29.408Z,13.88
2023-01-08T14:07:13.599Z,10.70
2023-01-08T14:09:41.201Z,8.40
2023-01-08T14:12:14.447Z,15.27
2023-01-08T14:14:53.656Z,14.52
2023-01-08T14:17:26.526Z,15.82
2023-01-08T14:19:54.025Z,14.27
2023-01-08T14:22:27.557Z,19.23
2023-01-08T14:25:00.668Z,13.10
2023-01-08T14:27:31.029Z,11.93
2023-01-08T14:29:59.148Z,10.70
2023-01-08T14:32:29.616Z,13.88
2023-01-08T14:34:59.601Z,11.73
2023-01-08T14:37:27.249Z,12.68
2023-01-08T14:39:55.303Z,14.02
2023-01-08T14:42:47.279Z,10.52
2023-01-08T14:45:17.915Z,14.90
2023-01-08T14:47:50.827Z,10.18
2023-01-08T14:50:30.315Z,9.32
2023-01-08T14:53:24.447Z,16.38
2023-01-08T14:55:55.372Z,12.65
2023-01-08T14:58:27.704Z,18.33
2023-01-08T15:00:59.832Z,15.15
2023-01-08T15:03:34.479Z,11.05
2023-01-08T15:06:02.199Z,12.48
2023-01-08T15:08:38.587Z,20.02
2023-01-08T15:11:07.565Z,10.15
2023-01-08T15:13:38.223Z,13.25
2023-01-08T15:16:12.313Z,11.43
2023-01-08T15:18:52.223Z,9.25
2023-01-08T15:21:22.425Z,10.27
2023-01-08T15:23:56.152Z,13.30
2023-01-08T15:26:24.415Z,6.55
2023-01-08T15:28:56.418Z,12.65
2023-01-08T15:31:26.348Z,8.60
2023-01-08T15:33:54.394Z,8.80
2023-01-08T15:36:22.165Z,8.45
2023-01-08T15:38:51.547Z,10.45
2023-01-08T15:41:41.555Z,12.40
2023-01-08T15:44:12.931Z,14.75
2023-01-08T15:46:40.466Z,7.55
2023-01-08T15:49:08.130Z,8.38
2023-01-08T15:51:40.631Z,8.95
2023-01-08T15:54:12.035Z,9.23
2023-01-08T15:56:40.112Z,7.43
2023-01-08T15:59:08.017Z,10.55
2023-01-08T16:01:35.652Z,10.32
2023-01-08T16:04:03.277Z,7.45
2023-01-08T16:06:31.294Z,8.82
2023-01-08T16:09:00.486Z,10.00
2023-01-08T16:11:28.147Z,11.02
2023-01-08T16:13:55.640Z,9.93
2023-01-08T16:16:23.317Z,9.68
2023-01-08T16:18:52.508Z,8.32
2023-01-08T16:21:20.085Z,7.03
2023-01-08T16:23:47.553Z,8.50
2023-01-08T16:26:16.014Z,14.77
2023-01-08T16:28:44.574Z,13.85
2023-01-08T16:31:12.236Z,15.07
2023-01-08T16:33:39.865Z,7.13
2023-01-08T16:36:09.256Z,16.50
2023-01-08T16:38:37.215Z,19.13
2023-01-08T16:41:06.118Z,12.20
2023-01-08T16:43:40.947Z,12.50
2023-01-08T16:46:13.730Z,14.15
2023-01-08T16:48:42.713Z,13.00
2023-01-08T16:51:11.335Z,15.68
2023-01-08T16:53:39.366Z,17.45
2023-01-08T16:56:07.314Z,13.90
2023-01-08T16:58:37.779Z,13.73
2023-01-08T17:01:10.983Z,12.75
2023-01-08T17:03:38.765Z,12.70
2023-01-08T17:06:08.239Z,9.80
2023-01-08T17:08:40.061Z,12.95
2023-01-08T17:11:08.667Z,13.65
2023-01-08T17:13:36.511Z,14.77
2023-01-08T17:16:09.143Z,11.38
2023-01-08T17:18:36.879Z,9.35
2023-01-08T17:21:05.779Z,11.60
2023-01-08T17:23:33.369Z,11.07
2023-01-08T17:26:05.039Z,7.53
2023-01-08T17:28:32.677Z,10.30
2023-01-08T17:31:11.384Z,10.35
2023-01-08T17:33:39.452Z,9.88
2023-01-08T17:36:15.417Z,10.68
2023-01-08T17:38:43.274Z,16.30
2023-01-08T17:41:30.981Z,12.38
2023-01-08T17:43:58.756Z,10.23
2023-01-08T17:46:26.524Z,7.05
2023-01-08T17:48:54.073Z,10.70
2023-01-08T17:51:21.555Z,9.68
2023-01-08T17:53:49.076Z,15.07
2023-01-08T17:56:16.553Z,9.88
2023-01-08T17:58:44.140Z,9.55
2023-01-08T18:01:13.181Z,11.63
2023-01-08T18:03:40.866Z,12.05
2023-01-08T18:06:10.472Z,15.85
2023-01-08T18:08:38.897Z,7.68
2023-01-08T18:11:08.739Z,5.35
2023-01-08T18:13:36.734Z,8.63
2023-01-08T18:16:05.358Z,5.85
2023-01-08T18:18:32.986Z,9.82
2023-01-08T18:21:00.559Z,4.38
2023-01-08T18:23:28.175Z,7.25
2023-01-08T18:25:55.621Z,6.70
2023-01-08T18:28:23.385Z,8.55
2023-01-08T18:30:50.849Z,7.90
2023-01-08T18:33:18.352Z,9.32
2023-01-08T18:35:45.866Z,15.05
2023-01-08T18:38:16.414Z,11.70
2023-01-08T18:40:44.405Z,8.52
2023-01-08T18:43:12.788Z,8.82
2023-01-08T18:45:41.153Z,18.10
2023-01-08T18:48:11.919Z,14.13
2023-01-08T18:50:40.572Z,8.27
2023-01-08T18:53:09.059Z,5.75
2023-01-08T18:55:37.720Z,8.25
2023-01-08T18:58:05.271Z,9.27
2023-01-08T19:00:32.823Z,9.05
2023-01-08T19:03:00.318Z,10.55
2023-01-08T19:05:27.884Z,12.52
2023-01-08T19:07:55.502Z,12.85
2023-01-08T19:10:23.067Z,7.72
2023-01-08T19:12:50.914Z,7.22
2023-01-08T19:15:18.506Z,8.20
2023-01-08T19:17:46.084Z,8.88
2023-01-08T19:20:13.688Z,10.95
2023-01-08T19:22:41.101Z,8.38
2023-01-08T19:25:09.172Z,10.10
2023-01-08T19:27:37.821Z,9.50
2023-01-08T19:30:05.899Z,15.52
2023-01-08T19:32:33.535Z,9.63
2023-01-08T19:35:01.631Z,6.82
2023-01-08T19:37:29.119Z,7.40
2023-01-08T19:40:01.052Z,9.85
2023-01-08T19:42:47.493Z,9.25
2023-01-08T19:45:15.269Z,7.32
2023-01-08T19:47:43.028Z,10.80
2023-01-08T19:50:11.147Z,12.65
2023-01-08T19:52:38.667Z,13.20
2023-01-08T19:55:06.484Z,15.40
2023-01-08T19:57:33.991Z,11.38
2023-01-08T20:00:01.639Z,20.63
2023-01-08T20:02:39.351Z,24.20
2023-01-08T20:05:07.174Z,14.70
2023-01-08T20:07:34.711Z,26.67
2023-01-08T20:10:04.064Z,19.05
2023-01-08T20:12:31.466Z,17.20
2023-01-08T20:14:59.488Z,18.35
2023-01-08T20:17:26.900Z,23.75
2023-01-08T20:19:54.460Z,26.02
2023-01-08T20:22:22.269Z,19.42
2023-01-08T20:24:50.852Z,17.15
2023-01-08T20:27:18.522Z,13.43
2023-01-08T20:29:46.175Z,12.90
2023-01-08T20:32:13.700Z,12.30
2023-01-08T20:34:42.256Z,18.52
2023-01-08T20:37:09.824Z,15.00
2023-01-08T20:39:37.602Z,14.75
2023-01-08T20:42:05.667Z,14.63
2023-01-08T20:44:33.353Z,15.95
2023-01-08T20:47:01.696Z,15.27
2023-01-08T20:49:29.739Z,11.63
2023-01-08T20:51:59.746Z,16.75
2023-01-08T20:54:29.124Z,15.10
2023-01-08T20:56:58.011Z,16.80
2023-01-08T20:59:26.348Z,10.40
2023-01-08T21:01:54.422Z,11.82
2023-01-08T21:04:22.523Z,13.50
2023-01-08T21:06:50.105Z,8.70
2023-01-08T21:09:18.226Z,18.00
2023-01-08T21:11:45.849Z,12.65
2023-01-08T21:14:13.473Z,11.60
2023-01-08T21:16:41.105Z,16.58
2023-01-08T21:19:11.702Z,16.23
2023-01-08T21:21:40.863Z,13.45
2023-01-08T21:24:11.285Z,15.05
2023-01-08T21:26:39.201Z,11.15
2023-01-08T21:29:08.906Z,15.20
2023-01-08T21:31:37.294Z,12.43
2023-01-08T21:34:06.272Z,10.23
2023-01-08T21:36:33.928Z,13.52
2023-01-08T21:39:02.074Z,12.52
2023-01-08T21:41:49.525Z,11.25
2023-01-08T21:44:38.046Z,13.15
2023-01-08T21:47:08.422Z,16.33
2023-01-08T21:49:36.712Z,14.02
2023-01-08T21:52:23.737Z,8.30
2023-01-08T21:54:51.664Z,15.15
2023-01-08T21:57:19.496Z,10.88
2023-01-08T21:59:50.401Z,8.82
2023-01-08T22:02:19.809Z,17.30
2023-01-08T22:04:47.555Z,16.17
2023-01-08T22:07:15.740Z,13.57
2023-01-08T22:09:43.192Z,7.60
2023-01-08T22:12:10.914Z,10.38
2023-01-08T22:14:38.497Z,10.60
2023-01-08T22:17:08.626Z,15.10
2023-01-08T22:19:39.982Z,7.95
2023-01-08T22:22:10.484Z,9.48
2023-01-08T22:24:39.680Z,11.35
2023-01-08T22:27:08.413Z,9.32
2023-01-08T22:29:37.506Z,9.68
2023-01-08T22:32:05.390Z,10.02
2023-01-08T22:34:34.128Z,9.38
2023-01-08T22:37:02.399Z,11.90
2023-01-08T22:39:30.210Z,10.07
2023-01-08T22:41:57.855Z,15.07
2023-01-08T22:44:25.350Z,10.88
2023-01-08T22:46:52.907Z,7.22
2023-01-08T22:49:20.553Z,9.20
2023-01-08T22:51:47.989Z,7.30
2023-01-08T22:54:17.915Z,8.13
2023-01-08T22:56:45.367Z,8.20
2023-01-08T22:59:12.889Z,8.13
2023-01-08T23:01:40.432Z,10.20
2023-01-08T23:04:08.154Z,9.10
2023-01-08T23:06:36.269Z,7.13
2023-01-08T23:09:04.247Z,10.32
2023-01-08T23:11:31.776Z,9.52
2023-01-08T23:14:00.901Z,7.28
2023-01-08T23:16:28.572Z,7.35
2023-01-08T23:18:56.667Z,8.30
2023-01-08T23:21:25.637Z,6.07
2023-01-08T23:23:53.312Z,8.85
2023-01-08T23:26:24.231Z,4.72
2023-01-08T23:28:53.401Z,4.60
2023-01-08T23:31:24.519Z,3.70
2023-01-08T23:33:53.083Z,5.38
2023-01-08T23:36:21.600Z,7.72
2023-01-08T23:38:52.045Z,5.03
2023-01-08T23:41:21.649Z,5.85
2023-01-08T23:43:50.297Z,8.27
2023-01-08T23:46:18.405Z,7.70
2023-01-08T23:48:45.941Z,8.50
2023-01-08T23:51:13.513Z,10.82
2023-01-08T23:53:40.963Z,10.43
2023-01-08T23:56:08.532Z,5.13
2023-01-08T23:58:36.534Z,5.60
